Minot Air Force Base Minot US
ICAO: KMIB
IATA: MIB
Category: Medium
Scheduled Services: No

Elevation: 1667 ft
TransAlt. 18000 ft.

Airport Communications:
APP:119.6
ATIS:27.88
CLNC DEL:32.62
DEP:119.6
GND:134
PMSV METRO:34.25
COMD POST:32.1
PTD:37.22
TWR:120.65

KMIB Zoom In..

If you have problems with the map follow the link
https://www.worldairports.se/pages/airport.php?
ICAO=KMIB

Runways:

(A) RW 11 length 13197 ft width 300 ft
ILS 109.90 / hdg 115

(B) RW 29 length 13197 ft width 300 ft
ILS 109.90 / hdg 295

Location; KMIB
Day. 18 / Time. 01.56 Zulu
* Altimeter: 30.34
* Temperature: -15° c. -5°f.
* Wind from: 340° Speed 07 kn.
Dewpoint: -18° c.
Visibility: 10 Statute Miles.
Clouds: Overcast 1000 ft.

KMIB 180156Z AUTO 34007KT 10SM OVC100 M15/M18 A3034 RMK AO2 SLP325 T11531182 $


Wind From 340°
Speed 07 kn.

 
 
jpsmedia.com for Web Design worldairports.se 2019   terms of use